Time;durP1;ratioP1;P1;durP2;ratioP2;P2;SDS_P1;SDS_P2;PMS_P1;PMS_P2;Temp;Humidity;BMP_temperature;BMP_pressure;BME280_temperature;BME280_humidity;BME280_pressure;Samples;Min_cycle;Max_cycle;Signal;HPM_P1;HPM_P2
2023/12/23 00:01:29;;;;;;;12.57;5.10;;;;;;;4.39;98.50;99302.81;5065954;28;20042;-66
2023/12/23 00:03:55;;;;;;;13.25;5.32;;;;;;;4.38;98.78;99300.34;5067642;28;20401;-66
2023/12/23 00:06:20;;;;;;;11.77;4.78;;;;;;;4.34;99.15;99300.63;5066335;28;20393;-66
2023/12/23 00:08:46;;;;;;;14.73;6.05;;;;;;;4.34;99.23;99295.47;5066159;28;20029;-66
2023/12/23 00:11:11;;;;;;;11.30;5.55;;;;;;;4.39;98.84;99310.53;5065068;28;20596;-66
2023/12/23 00:13:37;;;;;;;13.70;6.35;;;;;;;4.38;98.74;99296.00;5066215;28;20031;-66
2023/12/23 00:16:02;;;;;;;12.38;5.50;;;;;;;4.31;98.78;99285.41;5067844;28;20047;-66
2023/12/23 00:18:28;;;;;;;10.95;5.28;;;;;;;4.31;99.39;99289.75;5063849;28;20070;-66
2023/12/23 00:20:54;;;;;;;10.10;4.88;;;;;;;4.36;98.55;99294.50;5068637;28;20446;-66
2023/12/23 00:23:19;;;;;;;12.07;4.88;;;;;;;4.39;97.93;99307.16;5067483;28;20028;-66
2023/12/23 00:25:44;;;;;;;12.02;4.93;;;;;;;4.38;98.39;99305.50;5059516;28;20036;-66
2023/12/23 00:28:10;;;;;;;16.10;4.43;;;;;;;4.40;98.17;99306.19;5058688;28;20060;-67
2023/12/23 00:30:35;;;;;;;14.30;5.65;;;;;;;4.36;98.32;99300.50;5063056;28;20460;-66
2023/12/23 00:33:02;;;;;;;9.15;4.65;;;;;;;4.34;98.50;99287.72;5062597;28;20401;-66
2023/12/23 00:35:28;;;;;;;12.90;5.13;;;;;;;4.34;98.47;99303.19;5064170;28;20028;-66
2023/12/23 00:37:53;;;;;;;9.15;4.28;;;;;;;4.33;98.63;99299.00;5062585;28;20180;-66
2023/12/23 00:40:19;;;;;;;11.57;4.68;;;;;;;4.26;99.11;99303.03;5063427;28;20405;-66
2023/12/23 00:42:44;;;;;;;10.40;4.93;;;;;;;4.20;99.12;99292.47;5062928;28;20505;-66
2023/12/23 00:45:10;;;;;;;8.40;4.65;;;;;;;4.19;99.49;99293.41;5064047;28;20481;-66
2023/12/23 00:47:35;;;;;;;9.05;4.30;;;;;;;4.20;99.16;99303.59;5061960;28;20569;-66
2023/12/23 00:50:01;;;;;;;11.85;4.05;;;;;;;4.17;99.39;99314.16;5058774;28;20424;-66
2023/12/23 00:52:28;;;;;;;15.88;5.20;;;;;;;4.17;99.82;99298.69;5057903;28;20086;-66
2023/12/23 00:54:53;;;;;;;8.93;4.20;;;;;;;4.20;99.25;99297.63;5064291;28;20028;-66
2023/12/23 00:57:19;;;;;;;10.30;5.15;;;;;;;4.20;99.41;99298.44;5044789;28;20516;-66
2023/12/23 00:59:44;;;;;;;10.88;4.97;;;;;;;4.21;98.82;99301.84;5059572;28;20418;-66
2023/12/23 01:02:09;;;;;;;12.65;4.75;;;;;;;4.16;99.43;99314.31;5063823;28;20037;-66
2023/12/23 01:04:35;;;;;;;12.18;5.25;;;;;;;4.18;99.23;99317.56;5059916;28;20064;-66
2023/12/23 01:07:00;;;;;;;10.02;4.78;;;;;;;4.27;98.54;99339.94;5065050;28;20028;-66
2023/12/23 01:09:26;;;;;;;12.85;5.35;;;;;;;4.25;98.91;99332.34;5060700;28;20033;-66
2023/12/23 01:11:51;;;;;;;10.00;5.07;;;;;;;4.16;98.90;99333.16;5068798;28;20132;-66
2023/12/23 01:14:17;;;;;;;10.45;4.20;;;;;;;4.08;99.65;99340.72;5065765;28;20396;-66
2023/12/23 01:16:42;;;;;;;12.95;4.57;;;;;;;4.04;99.54;99336.78;5066862;28;20093;-66
2023/12/23 01:19:07;;;;;;;11.40;3.83;;;;;;;4.01;99.88;99344.78;5065652;28;20496;-66
2023/12/23 01:21:33;;;;;;;8.10;4.30;;;;;;;4.00;100.00;99361.19;5065392;28;20481;-66
2023/12/23 01:23:58;;;;;;;13.00;5.07;;;;;;;3.80;100.00;99362.03;5063378;28;20588;-66
2023/12/23 01:26:24;;;;;;;10.60;5.10;;;;;;;3.51;100.00;99369.59;5063556;28;20488;-66
2023/12/23 01:28:49;;;;;;;12.77;6.32;;;;;;;3.27;100.00;99365.53;5070799;28;20039;-66
2023/12/23 01:31:17;;;;;;;13.10;5.95;;;;;;;3.07;100.00;99378.38;5065374;28;20036;-66
2023/12/23 01:33:43;;;;;;;12.60;5.20;;;;;;;2.89;100.00;99366.03;5066898;28;20039;-66
2023/12/23 01:36:08;;;;;;;12.75;5.65;;;;;;;2.78;100.00;99363.53;5066368;28;20033;-66
2023/12/23 01:38:34;;;;;;;14.50;6.28;;;;;;;2.95;100.00;99380.16;5068924;28;20024;-66
2023/12/23 01:40:59;;;;;;;15.65;4.80;;;;;;;3.22;100.00;99377.16;5063729;28;20028;-66
2023/12/23 01:43:25;;;;;;;11.80;4.90;;;;;;;3.46;100.00;99388.00;5068427;28;20024;-66
2023/12/23 01:45:59;;;;;;;8.35;4.57;;;;;;;3.64;100.00;99385.69;5061648;28;20079;-66
2023/12/23 01:48:25;;;;;;;16.10;5.60;;;;;;;3.58;100.00;99389.59;5062470;28;20486;-66
2023/12/23 01:50:53;;;;;;;10.95;5.35;;;;;;;3.28;100.00;99382.63;5065480;28;20036;-66
2023/12/23 01:53:19;;;;;;;10.55;4.82;;;;;;;3.10;100.00;99363.50;5068384;28;20115;-66
2023/12/23 01:55:45;;;;;;;11.75;5.78;;;;;;;2.92;100.00;99386.38;5066813;28;20028;-66
2023/12/23 01:58:11;;;;;;;13.93;5.57;;;;;;;2.75;100.00;99384.34;5065568;28;20025;-66
2023/12/23 02:00:36;;;;;;;13.70;5.80;;;;;;;2.64;100.00;99381.78;5064693;28;20074;-66
2023/12/23 02:03:02;;;;;;;17.52;5.35;;;;;;;2.74;100.00;99367.28;5067238;28;20043;-66
2023/12/23 02:05:28;;;;;;;10.35;5.75;;;;;;;2.75;100.00;99379.19;5064672;28;20044;-66
2023/12/23 02:07:54;;;;;;;13.20;4.90;;;;;;;2.65;100.00;99391.13;5066795;28;20129;-66
2023/12/23 02:10:20;;;;;;;12.50;5.95;;;;;;;2.70;100.00;99385.63;5064241;28;20028;-66
2023/12/23 02:13:13;;;;;;;14.80;5.93;;;;;;;2.94;100.00;99374.19;5062011;28;20024;-66
2023/12/23 02:15:41;;;;;;;11.70;5.40;;;;;;;2.78;100.00;99380.72;5063382;28;20037;-66
2023/12/23 02:18:07;;;;;;;14.23;5.97;;;;;;;2.83;100.00;99381.97;5066847;28;20078;-66
2023/12/23 02:20:32;;;;;;;10.93;4.93;;;;;;;3.20;100.00;99394.47;5064893;28;20548;-66
2023/12/23 02:22:58;;;;;;;14.05;5.40;;;;;;;3.40;100.00;99395.41;5063361;28;20089;-66
2023/12/23 02:25:23;;;;;;;12.20;5.20;;;;;;;3.54;100.00;99384.81;5060804;28;20036;-66
2023/12/23 02:27:55;;;;;;;10.27;4.10;;;;;;;3.63;100.00;99392.59;5062026;28;20029;-66
2023/12/23 02:30:23;;;;;;;9.32;4.20;;;;;;;3.79;100.00;99396.47;5065849;28;20028;-66
2023/12/23 02:32:49;;;;;;;13.13;3.90;;;;;;;3.80;100.00;99395.53;5067271;28;20032;-66
2023/12/23 02:35:15;;;;;;;11.18;4.75;;;;;;;3.86;100.00;99393.25;5066232;28;20062;-66
2023/12/23 02:37:41;;;;;;;11.00;4.32;;;;;;;3.88;100.00;99400.84;5065959;28;20116;-66
2023/12/23 02:40:07;;;;;;;7.47;3.10;;;;;;;3.91;100.00;99400.59;5067914;28;20194;-66
2023/12/23 02:42:33;;;;;;;9.65;4.03;;;;;;;3.90;100.00;99398.97;5061780;28;20098;-66
2023/12/23 02:44:58;;;;;;;8.55;4.47;;;;;;;3.90;100.00;99404.13;5062435;28;20037;-66
2023/12/23 02:47:24;;;;;;;8.70;3.53;;;;;;;3.91;100.00;99413.50;5066876;28;20435;-66
2023/12/23 02:49:49;;;;;;;8.98;3.97;;;;;;;3.94;100.00;99400.34;5062416;28;20075;-66
2023/12/23 02:52:15;;;;;;;5.07;3.15;;;;;;;3.86;100.00;99403.56;5064787;28;20040;-66
2023/12/23 02:54:40;;;;;;;6.38;2.13;;;;;;;3.73;100.00;99407.31;5063929;28;20046;-66
2023/12/23 02:57:05;;;;;;;9.02;3.97;;;;;;;3.83;100.00;99403.81;5063479;28;20032;-66
2023/12/23 02:59:31;;;;;;;10.82;3.78;;;;;;;3.89;100.00;99398.16;5063018;28;20412;-66
2023/12/23 03:01:56;;;;;;;8.88;4.03;;;;;;;3.89;100.00;99397.34;5063138;28;20167;-66
2023/12/23 03:04:22;;;;;;;9.55;4.75;;;;;;;3.93;100.00;99394.38;5062899;28;20033;-66
2023/12/23 03:06:47;;;;;;;9.70;4.05;;;;;;;3.79;100.00;99407.59;5065941;28;20453;-66
2023/12/23 03:09:13;;;;;;;10.35;4.18;;;;;;;3.48;100.00;99403.34;5065255;28;20043;-66
2023/12/23 03:11:38;;;;;;;8.65;3.78;;;;;;;3.22;100.00;99400.31;5064122;28;20041;-66
2023/12/23 03:14:04;;;;;;;10.00;4.70;;;;;;;2.94;100.00;99401.69;5066726;28;20396;-66
2023/12/23 03:16:34;;;;;;;8.52;4.35;;;;;;;2.80;100.00;99414.84;5066891;28;20333;-66
2023/12/23 03:19:05;;;;;;;8.98;3.95;;;;;;;2.84;100.00;99424.75;5063712;28;20047;-66
2023/12/23 03:21:31;;;;;;;9.55;4.70;;;;;;;2.94;100.00;99414.56;5068466;28;20039;-66
2023/12/23 03:23:57;;;;;;;8.82;3.58;;;;;;;3.07;100.00;99419.56;5063160;28;20111;-66
2023/12/23 03:26:22;;;;;;;6.45;3.65;;;;;;;2.98;100.00;99433.97;5062426;28;20102;-66
2023/12/23 03:28:48;;;;;;;13.18;4.80;;;;;;;3.10;100.00;99429.59;5059788;28;20037;-66
2023/12/23 03:31:13;;;;;;;7.25;4.00;;;;;;;3.47;100.00;99424.88;5063419;28;20028;-66
2023/12/23 03:33:41;;;;;;;10.57;3.25;;;;;;;3.56;100.00;99427.53;5060994;28;20039;-66
2023/12/23 03:36:07;;;;;;;9.32;4.30;;;;;;;3.62;100.00;99432.19;5063860;28;20020;-66
2023/12/23 03:38:33;;;;;;;9.35;4.38;;;;;;;3.64;100.00;99440.59;5065380;28;20553;-66
2023/12/23 03:40:58;;;;;;;7.20;3.78;;;;;;;3.64;100.00;99439.78;5062040;28;20569;-66
2023/12/23 03:43:23;;;;;;;9.82;4.47;;;;;;;3.60;100.00;99439.22;5062416;28;20134;-66
2023/12/23 03:45:49;;;;;;;9.93;4.38;;;;;;;3.69;100.00;99437.66;5060160;28;20032;-66
2023/12/23 03:48:14;;;;;;;14.60;4.15;;;;;;;3.73;100.00;99435.63;5060521;28;20059;-66
2023/12/23 03:50:40;;;;;;;12.15;3.83;;;;;;;3.72;100.00;99436.59;5061194;28;20478;-66
2023/12/23 03:53:05;;;;;;;8.98;3.70;;;;;;;3.63;100.00;99449.28;5064112;28;20033;-66
2023/12/23 03:55:32;;;;;;;8.98;3.55;;;;;;;3.63;100.00;99469.88;5061861;28;20045;-66
2023/12/23 03:58:02;;;;;;;6.82;3.75;;;;;;;3.64;100.00;99462.97;5061661;28;20085;-66
2023/12/23 04:00:28;;;;;;;10.98;4.30;;;;;;;3.60;100.00;99467.53;5060093;28;20408;-66
2023/12/23 04:02:54;;;;;;;8.30;4.45;;;;;;;3.64;100.00;99461.22;5062163;28;20032;-66
2023/12/23 04:05:20;;;;;;;10.55;3.50;;;;;;;3.70;100.00;99459.06;5066744;28;20040;-66
2023/12/23 04:07:51;;;;;;;9.98;4.55;;;;;;;3.71;100.00;99465.88;5063547;28;20025;-66
2023/12/23 04:10:17;;;;;;;10.07;4.22;;;;;;;3.68;100.00;99469.50;5062311;28;20036;-66
2023/12/23 04:12:43;;;;;;;9.35;4.15;;;;;;;3.66;100.00;99479.13;5060176;28;20036;-66
2023/12/23 04:15:09;;;;;;;7.70;3.70;;;;;;;3.71;100.00;99482.13;5065228;28;20036;-66
2023/12/23 04:17:35;;;;;;;11.02;4.07;;;;;;;3.71;100.00;99478.75;5061121;28;20214;-66
2023/12/23 04:20:01;;;;;;;8.93;3.33;;;;;;;3.75;100.00;99487.88;5061977;28;20024;-66
2023/12/23 04:22:26;;;;;;;8.02;4.10;;;;;;;3.77;100.00;99502.25;5066604;28;20051;-66
2023/12/23 04:24:51;;;;;;;7.53;3.63;;;;;;;3.80;100.00;99498.59;5061815;28;20047;-66
2023/12/23 04:27:17;;;;;;;9.55;3.60;;;;;;;3.78;100.00;99503.06;5061852;28;20059;-66
2023/12/23 04:29:43;;;;;;;11.23;4.53;;;;;;;3.74;100.00;99512.81;5063438;28;20098;-66
2023/12/23 04:32:08;;;;;;;13.13;4.32;;;;;;;3.69;100.00;99519.28;5060296;28;20508;-66
2023/12/23 04:34:34;;;;;;;9.48;3.67;;;;;;;3.70;100.00;99524.31;5064205;28;20487;-66
2023/12/23 04:36:59;;;;;;;14.40;3.58;;;;;;;3.73;100.00;99531.78;5063707;28;20036;-66
2023/12/23 04:39:25;;;;;;;13.07;3.70;;;;;;;3.76;100.00;99515.25;5064275;28;20461;-66
2023/12/23 04:41:52;;;;;;;9.93;4.20;;;;;;;3.80;100.00;99537.22;5059447;28;20040;-66
2023/12/23 04:44:17;;;;;;;10.02;4.13;;;;;;;3.76;100.00;99507.53;5063307;28;20107;-66
2023/12/23 04:46:46;;;;;;;9.00;4.25;;;;;;;3.76;100.00;99541.84;5058643;28;20481;-66
2023/12/23 04:49:11;;;;;;;8.73;3.67;;;;;;;3.81;100.00;99536.28;5061054;28;20396;-66
2023/12/23 04:51:37;;;;;;;11.48;4.13;;;;;;;3.70;100.00;99551.81;5060572;28;20028;-66
2023/12/23 04:54:02;;;;;;;11.88;3.83;;;;;;;3.80;100.00;99552.69;5060010;28;20476;-66
2023/12/23 04:56:28;;;;;;;9.90;4.32;;;;;;;3.95;100.00;99556.63;5063126;28;20032;-66
2023/12/23 04:58:56;;;;;;;7.88;3.35;;;;;;;4.00;100.00;99550.16;5065522;28;20074;-66
2023/12/23 05:01:22;;;;;;;9.43;3.88;;;;;;;4.12;100.00;99556.06;5063503;28;20033;-66
2023/12/23 05:03:47;;;;;;;12.38;5.05;;;;;;;4.20;100.00;99540.78;5063105;28;20447;-66
2023/12/23 05:06:13;;;;;;;10.63;4.53;;;;;;;4.30;100.00;99557.13;5061176;28;20119;-66
2023/12/23 05:08:38;;;;;;;9.57;4.50;;;;;;;4.43;99.58;99567.25;5060904;28;20052;-66
2023/12/23 05:11:04;;;;;;;9.70;4.50;;;;;;;4.33;99.12;99572.34;5060950;28;20100;-66
2023/12/23 05:13:29;;;;;;;10.15;4.47;;;;;;;4.23;99.47;99584.38;5060335;28;20509;-66
2023/12/23 05:15:54;;;;;;;7.97;3.75;;;;;;;4.14;99.58;99577.38;5061887;28;20123;-66
2023/12/23 05:18:20;;;;;;;6.75;3.10;;;;;;;3.99;99.63;99578.63;5061456;28;20033;-66
2023/12/23 05:20:45;;;;;;;8.25;4.78;;;;;;;3.88;100.00;99589.78;5061425;28;20039;-66
2023/12/23 05:23:11;;;;;;;11.48;4.45;;;;;;;3.82;100.00;99597.19;5060704;28;20040;-66
2023/12/23 05:25:36;;;;;;;11.65;4.13;;;;;;;3.81;100.00;99606.69;5066883;28;20032;-66
2023/12/23 05:28:02;;;;;;;8.30;3.92;;;;;;;3.77;100.00;99620.78;5062272;28;20046;-66
2023/12/23 05:30:27;;;;;;;8.90;3.70;;;;;;;3.62;100.00;99617.66;5060673;28;20043;-66
2023/12/23 05:32:53;;;;;;;9.68;3.78;;;;;;;3.52;100.00;99579.84;5065048;28;20029;-66
2023/12/23 05:35:18;;;;;;;9.77;4.20;;;;;;;3.47;100.00;99624.00;5061887;28;20037;-66
2023/12/23 05:37:44;;;;;;;9.93;4.05;;;;;;;3.27;100.00;99552.66;5060076;28;20041;-66
2023/12/23 05:40:10;;;;;;;8.82;4.13;;;;;;;3.36;100.00;99590.53;5061149;28;20087;-66
2023/12/23 05:42:36;;;;;;;9.05;4.20;;;;;;;3.29;100.00;99621.09;5058099;28;20043;-66
2023/12/23 05:45:01;;;;;;;10.38;4.40;;;;;;;3.49;100.00;99591.22;5058764;28;20025;-66
2023/12/23 05:47:29;;;;;;;12.50;4.45;;;;;;;3.65;100.00;99606.28;5060416;28;20094;-66
2023/12/23 05:49:54;;;;;;;15.45;5.45;;;;;;;3.64;100.00;99594.34;5061677;28;20037;-66
2023/12/23 05:52:20;;;;;;;11.25;4.88;;;;;;;3.64;100.00;99591.75;5061716;28;20550;-66
2023/12/23 05:54:45;;;;;;;16.23;6.30;;;;;;;3.63;100.00;99613.31;5061763;28;20048;-66
2023/12/23 05:57:11;;;;;;;9.95;5.45;;;;;;;3.63;100.00;99614.13;5061975;28;20033;-66
2023/12/23 05:59:36;;;;;;;7.85;4.00;;;;;;;3.58;100.00;99630.88;5063579;28;20056;-66
2023/12/23 06:02:01;;;;;;;9.40;3.85;;;;;;;3.55;100.00;99629.38;5068005;28;20040;-66
2023/12/23 06:04:27;;;;;;;9.32;4.20;;;;;;;3.46;100.00;99627.50;5063832;28;20048;-66
2023/12/23 06:06:53;;;;;;;11.40;3.63;;;;;;;3.42;100.00;99638.16;5065746;28;20384;-66
2023/12/23 06:09:18;;;;;;;6.63;3.10;;;;;;;3.38;100.00;99634.19;5066932;28;20130;-66
2023/12/23 06:11:44;;;;;;;14.32;4.38;;;;;;;3.35;100.00;99642.97;5066739;28;20025;-66
2023/12/23 06:14:10;;;;;;;9.32;3.88;;;;;;;3.26;100.00;99646.28;5065600;28;20120;-66
2023/12/23 06:16:41;;;;;;;6.95;3.67;;;;;;;3.24;100.00;99638.66;5068845;28;20040;-66
2023/12/23 06:19:07;;;;;;;10.02;3.58;;;;;;;3.19;100.00;99632.22;5065183;28;20028;-66
2023/12/23 06:21:32;;;;;;;8.50;3.70;;;;;;;3.18;100.00;99633.16;5061842;28;20040;-66
2023/12/23 06:23:59;;;;;;;9.82;3.83;;;;;;;3.18;100.00;99643.47;5062577;28;20039;-66
2023/12/23 06:26:25;;;;;;;12.55;4.60;;;;;;;3.22;100.00;99644.88;5063285;28;20086;-66
2023/12/23 06:28:50;;;;;;;14.48;4.78;;;;;;;3.24;100.00;99635.28;5062360;28;20045;-66
2023/12/23 06:31:16;;;;;;;13.48;3.85;;;;;;;3.25;100.00;99645.44;5065477;28;20036;-66
2023/12/23 06:33:41;;;;;;;10.80;3.97;;;;;;;3.29;100.00;99646.03;5061183;28;20048;-66
2023/12/23 06:36:08;;;;;;;9.38;4.60;;;;;;;3.33;100.00;99652.56;5068901;28;20073;-66
2023/12/23 06:38:36;;;;;;;10.77;4.13;;;;;;;3.37;100.00;99660.88;5065332;28;20028;-66
2023/12/23 06:41:03;;;;;;;8.02;3.10;;;;;;;3.44;100.00;99670.59;5066439;28;20043;-66
2023/12/23 06:43:29;;;;;;;13.38;4.70;;;;;;;3.37;100.00;99668.59;5068078;28;20506;-66
2023/12/23 06:45:54;;;;;;;11.63;4.05;;;;;;;3.34;100.00;99669.66;5069188;28;20160;-66
2023/12/23 06:48:20;;;;;;;11.90;4.32;;;;;;;3.35;100.00;99666.13;5065552;28;20064;-66
2023/12/23 06:50:45;;;;;;;8.52;3.75;;;;;;;3.32;100.00;99653.50;5069107;28;20026;-66
2023/12/23 06:53:11;;;;;;;8.52;3.45;;;;;;;3.34;100.00;99655.00;5067580;28;20040;-66
2023/12/23 06:55:36;;;;;;;10.50;4.10;;;;;;;3.34;100.00;99665.31;5063854;28;20031;-66
2023/12/23 06:58:02;;;;;;;8.45;3.97;;;;;;;3.33;100.00;99668.00;5066507;28;20549;-66
2023/12/23 07:00:27;;;;;;;9.60;4.05;;;;;;;3.31;100.00;99667.31;5061341;28;20160;-66
2023/12/23 07:02:54;;;;;;;8.40;3.88;;;;;;;3.34;100.00;99664.50;5063911;28;20473;-66
2023/12/23 07:05:19;;;;;;;11.63;4.78;;;;;;;3.37;100.00;99668.59;5066997;28;20044;-66
2023/12/23 07:07:45;;;;;;;10.40;3.55;;;;;;;3.45;100.00;99661.09;5064261;28;20469;-66
2023/12/23 07:10:13;;;;;;;14.85;4.93;;;;;;;3.56;100.00;99653.38;5063217;28;20028;-66
2023/12/23 07:12:38;;;;;;;11.25;4.63;;;;;;;3.64;100.00;99661.31;5064291;28;20034;-66
2023/12/23 07:15:06;;;;;;;12.27;4.63;;;;;;;3.65;100.00;99668.94;5063855;28;20111;-66
2023/12/23 07:17:32;;;;;;;6.55;3.17;;;;;;;3.61;100.00;99670.09;5065819;28;20036;-66
2023/12/23 07:19:57;;;;;;;9.95;3.97;;;;;;;3.60;100.00;99680.53;5066019;28;20112;-66
2023/12/23 07:22:22;;;;;;;11.45;4.50;;;;;;;3.66;100.00;99686.03;5061340;28;20024;-66
2023/12/23 07:24:48;;;;;;;8.32;3.65;;;;;;;3.80;100.00;99673.78;5063824;28;20400;-66
2023/12/23 07:27:13;;;;;;;6.25;3.90;;;;;;;3.82;100.00;99672.72;5064874;28;20041;-67
2023/12/23 07:29:39;;;;;;;7.97;3.63;;;;;;;3.84;99.47;99677.78;5066596;28;20045;-66
2023/12/23 07:32:06;;;;;;;13.10;3.88;;;;;;;3.77;99.30;99679.22;5065299;28;20039;-66
2023/12/23 07:34:31;;;;;;;8.30;3.58;;;;;;;3.71;99.88;99685.66;5063750;28;20448;-66
2023/12/23 07:36:56;;;;;;;11.63;3.78;;;;;;;3.70;100.00;99696.09;5067466;28;20032;-66
2023/12/23 07:39:22;;;;;;;9.70;4.13;;;;;;;3.76;99.96;99691.28;5062677;28;20028;-66
2023/12/23 07:41:47;;;;;;;8.70;4.15;;;;;;;3.77;99.68;99687.75;5065522;28;20029;-66
2023/12/23 07:44:13;;;;;;;7.72;3.15;;;;;;;3.78;99.89;99706.63;5067719;28;20032;-66
2023/12/23 07:46:38;;;;;;;7.85;3.50;;;;;;;3.80;99.30;99699.56;5068867;28;20037;-66
2023/12/23 07:49:03;;;;;;;13.45;4.63;;;;;;;3.83;99.06;99707.06;5068870;28;20397;-66
2023/12/23 07:51:29;;;;;;;12.45;4.32;;;;;;;3.82;98.78;99703.66;5060952;28;20032;-66
2023/12/23 07:53:55;;;;;;;7.28;3.45;;;;;;;3.84;99.11;99703.53;5066004;28;20040;-66
2023/12/23 07:56:20;;;;;;;9.95;4.13;;;;;;;3.89;98.41;99706.56;5064998;28;20043;-66
2023/12/23 07:58:46;;;;;;;13.23;4.07;;;;;;;3.92;98.69;99703.75;5065312;28;20534;-66
2023/12/23 08:01:11;;;;;;;10.23;4.38;;;;;;;3.97;98.66;99705.03;5060379;28;20032;-66
2023/12/23 08:03:36;;;;;;;11.57;4.05;;;;;;;4.02;98.54;99707.25;5064694;28;20040;-66
2023/12/23 08:06:02;;;;;;;13.30;4.50;;;;;;;4.06;98.26;99715.56;5061621;28;20078;-66
2023/12/23 08:08:27;;;;;;;14.35;4.82;;;;;;;4.11;98.29;99724.56;5063878;28;20028;-66
2023/12/23 08:10:54;;;;;;;11.93;4.70;;;;;;;4.08;98.17;99727.41;5062221;28;20099;-66
2023/12/23 08:13:20;;;;;;;10.27;4.35;;;;;;;4.06;98.06;99734.44;5060628;28;20460;-67
2023/12/23 08:15:46;;;;;;;10.00;4.30;;;;;;;4.06;98.63;99731.84;5062923;28;20026;-66
2023/12/23 08:18:12;;;;;;;10.30;4.20;;;;;;;4.06;98.48;99734.44;5062806;28;20097;-67
2023/12/23 08:20:37;;;;;;;10.60;4.28;;;;;;;4.03;99.21;99739.81;5057317;28;20033;-66
2023/12/23 08:23:03;;;;;;;9.65;4.45;;;;;;;4.03;100.00;99739.00;5062261;28;20033;-66
2023/12/23 08:25:28;;;;;;;10.73;5.03;;;;;;;4.17;100.00;99749.06;5059975;28;20039;-66
2023/12/23 08:27:54;;;;;;;8.90;3.75;;;;;;;4.32;98.45;99750.41;5058045;28;20527;-66
2023/12/23 08:30:19;;;;;;;8.77;4.63;;;;;;;4.43;97.67;99759.88;5063203;28;20489;-66
2023/12/23 08:32:45;;;;;;;8.05;4.20;;;;;;;4.46;97.49;99751.88;5059268;28;20031;-67
2023/12/23 08:35:11;;;;;;;9.95;3.67;;;;;;;4.58;97.85;99766.38;5062097;28;20028;-66
2023/12/23 08:37:37;;;;;;;8.32;3.67;;;;;;;4.68;97.38;99762.13;5065447;28;20410;-66
2023/12/23 08:40:03;;;;;;;12.15;4.20;;;;;;;4.86;96.88;99783.03;5058265;28;20028;-66
2023/12/23 08:42:28;;;;;;;12.85;4.65;;;;;;;5.05;95.78;99783.19;5059830;28;20029;-67
2023/12/23 08:44:54;;;;;;;12.55;4.78;;;;;;;5.11;95.22;99780.09;5062430;28;20102;-67
2023/12/23 08:47:19;;;;;;;11.88;4.60;;;;;;;5.11;94.77;99787.84;5061944;28;20064;-67
2023/12/23 08:49:44;;;;;;;10.43;3.92;;;;;;;5.16;94.98;99783.13;5060664;28;20036;-67
2023/12/23 08:52:10;;;;;;;14.13;4.80;;;;;;;5.32;94.47;99782.66;5060071;28;20035;-67
2023/12/23 08:54:35;;;;;;;11.32;4.32;;;;;;;5.50;94.12;99785.47;5056947;28;20449;-68
2023/12/23 08:57:01;;;;;;;11.65;4.75;;;;;;;5.65;92.89;99795.34;5063546;28;20032;-67
2023/12/23 08:59:26;;;;;;;11.75;3.95;;;;;;;5.76;92.15;99796.19;5054827;28;20131;-67
2023/12/23 09:01:51;;;;;;;8.35;3.90;;;;;;;5.72;92.90;99802.56;5062314;28;20174;-66
2023/12/23 09:04:20;;;;;;;10.50;4.45;;;;;;;5.84;92.26;99793.78;5063228;28;20032;-67
2023/12/23 09:06:46;;;;;;;8.38;5.07;;;;;;;5.83;92.26;99797.31;5059402;28;20024;-67
2023/12/23 09:09:11;;;;;;;13.13;5.18;;;;;;;5.84;92.67;99796.34;5063315;28;20111;-67
2023/12/23 09:11:44;;;;;;;7.70;4.57;;;;;;;5.94;91.70;99800.66;5057030;28;20197;-67
2023/12/23 09:14:10;;;;;;;10.95;4.68;;;;;;;5.97;91.42;99800.38;5059265;28;20036;-67
2023/12/23 09:16:36;;;;;;;14.40;5.00;;;;;;;6.10;91.06;99810.50;5060420;28;20032;-67
2023/12/23 09:19:03;;;;;;;13.30;5.03;;;;;;;6.26;90.56;99810.78;5062591;28;20031;-67
2023/12/23 09:21:28;;;;;;;14.40;4.50;;;;;;;6.36;90.29;99815.19;5066597;28;20385;-67
2023/12/23 09:23:54;;;;;;;10.77;4.85;;;;;;;6.33;90.70;99814.50;5062644;28;20017;-67
2023/12/23 09:26:20;;;;;;;12.73;4.88;;;;;;;6.42;89.89;99814.66;5058939;28;20394;-67
2023/12/23 09:28:45;;;;;;;11.00;4.60;;;;;;;6.33;90.96;99822.25;5061686;28;20423;-67
2023/12/23 09:31:10;;;;;;;11.30;5.03;;;;;;;6.29;91.63;99826.06;5066292;28;20032;-67
2023/12/23 09:33:38;;;;;;;11.07;4.85;;;;;;;6.33;90.96;99821.44;5068966;28;20500;-67
2023/12/23 09:36:05;;;;;;;12.73;4.00;;;;;;;6.45;90.37;99817.78;5060221;28;20120;-67
2023/12/23 09:38:30;;;;;;;11.57;4.22;;;;;;;6.59;90.06;99816.59;5064013;28;20039;-67
2023/12/23 09:40:56;;;;;;;15.45;4.70;;;;;;;6.61;90.40;99817.28;5064176;28;20028;-67
2023/12/23 09:43:22;;;;;;;13.75;4.32;;;;;;;6.76;90.13;99817.66;5061136;28;20032;-67
2023/12/23 09:45:48;;;;;;;8.82;4.28;;;;;;;6.73;89.78;99821.34;5060305;28;20500;-67
2023/12/23 09:48:14;;;;;;;11.00;4.85;;;;;;;6.88;89.78;99814.81;5066530;28;20378;-67
2023/12/23 09:50:39;;;;;;;10.38;5.45;;;;;;;6.92;90.07;99813.59;5067331;28;20031;-67
2023/12/23 09:53:10;;;;;;;12.65;4.85;;;;;;;6.95;90.76;99815.09;5065812;28;20024;-67
2023/12/23 09:55:37;;;;;;;12.57;4.85;;;;;;;7.07;90.83;99815.78;5064936;28;20028;-68
2023/12/23 09:58:03;;;;;;;12.32;5.30;;;;;;;7.10;90.46;99812.88;5065523;28;20473;-67
2023/12/23 10:00:28;;;;;;;9.48;4.38;;;;;;;7.31;89.12;99803.19;5064320;28;20040;-67
2023/12/23 10:02:54;;;;;;;13.13;5.03;;;;;;;7.33;89.34;99816.81;5069287;28;20035;-67
2023/12/23 10:05:19;;;;;;;9.98;4.72;;;;;;;7.49;88.69;99805.88;5065840;28;20041;-67
2023/12/23 10:07:45;;;;;;;15.73;5.88;;;;;;;7.70;88.13;99810.84;5065065;28;20024;-67
2023/12/23 10:10:10;;;;;;;12.40;5.63;;;;;;;7.65;88.09;99812.06;5057430;28;20131;-67
2023/12/23 10:12:36;;;;;;;20.30;7.60;;;;;;;7.65;89.02;99793.94;5067840;28;20043;-67
2023/12/23 10:15:02;;;;;;;14.75;6.03;;;;;;;7.80;87.92;99777.91;5065766;28;20555;-68
2023/12/23 10:17:27;;;;;;;12.13;5.70;;;;;;;7.83;87.54;99778.44;5062261;28;20055;-67
2023/12/23 10:19:55;;;;;;;16.48;5.55;;;;;;;7.89;88.60;99792.63;5061431;28;20035;-66
2023/12/23 10:22:20;;;;;;;13.30;5.88;;;;;;;7.86;88.60;99790.31;5062384;28;20064;-67
2023/12/23 10:24:46;;;;;;;14.65;5.75;;;;;;;7.90;89.44;99791.66;5065681;28;20498;-67
2023/12/23 10:27:15;;;;;;;12.05;6.18;;;;;;;7.88;89.87;99785.78;5063571;28;20486;-67
2023/12/23 10:29:44;;;;;;;13.88;5.63;;;;;;;7.84;90.53;99800.00;5063564;28;20051;-67
2023/12/23 10:32:12;;;;;;;12.77;6.50;;;;;;;7.86;90.62;99787.72;5060423;28;20032;-65
2023/12/23 10:34:44;;;;;;;18.92;6.60;;;;;;;7.93;90.50;99791.38;5065190;28;20017;-67
2023/12/23 10:37:11;;;;;;;12.07;6.38;;;;;;;7.83;90.86;99783.63;5063309;28;20040;-64
2023/12/23 10:40:02;;;;;;;13.77;5.82;;;;;;;7.97;90.83;99784.94;5060909;28;20032;-67
2023/12/23 10:42:28;;;;;;;15.48;7.35;;;;;;;8.07;88.92;99783.09;5060023;28;20046;-67
2023/12/23 10:44:57;;;;;;;20.20;7.13;;;;;;;8.14;89.23;99776.34;5063151;28;20112;-67
2023/12/23 10:47:24;;;;;;;19.45;7.53;;;;;;;8.35;87.96;99783.09;5065235;28;20028;-66
2023/12/23 10:49:51;;;;;;;19.08;7.93;;;;;;;8.45;88.48;99765.69;5061577;28;20029;-67
2023/12/23 10:52:18;;;;;;;16.70;6.97;;;;;;;8.48;88.89;99762.81;5063105;28;20039;-67
2023/12/23 10:54:44;;;;;;;18.08;7.28;;;;;;;8.48;89.42;99760.19;5059346;28;20047;-66
2023/12/23 10:57:11;;;;;;;17.50;7.18;;;;;;;8.48;89.75;99761.03;5061038;28;20036;-67
2023/12/23 10:59:36;;;;;;;14.57;6.90;;;;;;;8.54;89.36;99757.81;5066210;28;20436;-66
2023/12/23 11:02:15;;;;;;;13.75;6.85;;;;;;;8.51;89.63;99765.06;5064225;28;20033;-66
2023/12/23 11:05:02;;;;;;;19.63;8.35;;;;;;;8.48;89.18;99755.81;5064600;28;20194;-66
2023/12/23 11:07:31;;;;;;;18.50;8.10;;;;;;;8.57;89.97;99752.31;5058259;28;20040;-66
2023/12/23 11:10:01;;;;;;;18.25;8.45;;;;;;;8.75;90.34;99743.72;5066064;28;20041;-66
2023/12/23 11:12:30;;;;;;;20.65;9.00;;;;;;;8.70;90.67;99728.56;5061913;28;20199;-66
2023/12/23 11:14:59;;;;;;;25.45;10.90;;;;;;;8.63;92.36;99720.56;5064013;28;20108;-67
2023/12/23 11:17:29;;;;;;;25.48;12.65;;;;;;;8.64;93.04;99731.75;5065208;28;20156;-67
2023/12/23 11:19:59;;;;;;;24.33;11.55;;;;;;;8.70;93.31;99725.97;5067030;28;20111;-67
2023/12/23 11:22:42;;;;;;;24.38;11.20;;;;;;;8.81;93.24;99720.53;5063353;28;20116;-67
2023/12/23 11:25:40;;;;;;;19.58;9.88;;;;;;;8.92;92.22;99722.09;5063430;28;20033;-67
2023/12/23 11:28:09;;;;;;;26.02;11.73;;;;;;;8.78;93.25;99727.81;5065266;28;20119;-67